createdAt,value
2023-03-13T00:00:11.225Z,41.57
2023-03-13T00:02:39.845Z,44.43
2023-03-13T00:05:09.176Z,36.73
2023-03-13T00:07:39.549Z,39.17
2023-03-13T00:10:09.260Z,38.70
2023-03-13T00:12:37.786Z,39.13
2023-03-13T00:15:06.895Z,34.60
2023-03-13T00:17:35.604Z,37.60
2023-03-13T00:20:04.319Z,39.83
2023-03-13T00:22:32.830Z,40.70
2023-03-13T00:25:03.211Z,39.70
2023-03-13T00:27:35.237Z,40.10
2023-03-13T00:30:03.940Z,36.17
2023-03-13T00:32:32.566Z,36.47
2023-03-13T00:35:01.100Z,37.73
2023-03-13T00:37:33.803Z,38.83
2023-03-13T00:40:05.367Z,21.38
2023-03-13T00:42:34.482Z,31.20
2023-03-13T00:45:02.989Z,55.77
2023-03-13T00:47:31.554Z,54.10
2023-03-13T00:50:00.225Z,45.10
2023-03-13T00:52:29.449Z,40.03
2023-03-13T00:54:58.266Z,42.13
2023-03-13T00:57:28.708Z,39.00
2023-03-13T00:59:57.307Z,38.63
2023-03-13T01:02:26.019Z,37.67
2023-03-13T01:04:54.698Z,38.00
2023-03-13T01:07:24.782Z,39.80
2023-03-13T01:09:53.460Z,36.97
2023-03-13T01:12:22.018Z,40.10
2023-03-13T01:14:53.014Z,44.07
2023-03-13T01:17:21.663Z,44.37
2023-03-13T01:19:50.259Z,45.97
2023-03-13T01:22:18.982Z,45.20
2023-03-13T01:24:50.427Z,49.83
2023-03-13T01:27:19.013Z,52.00
2023-03-13T01:29:47.630Z,50.40
2023-03-13T01:32:17.854Z,60.97
2023-03-13T01:34:46.679Z,56.93
2023-03-13T01:37:15.304Z,54.97
2023-03-13T01:39:44.165Z,49.90
2023-03-13T01:42:12.759Z,59.27
2023-03-13T01:44:52.587Z,55.37
2023-03-13T01:47:23.564Z,58.50
2023-03-13T01:49:53.950Z,58.70
2023-03-13T01:52:25.963Z,56.60
2023-03-13T01:54:58.396Z,56.93
2023-03-13T01:57:31.032Z,67.73
2023-03-13T02:00:03.832Z,60.23
2023-03-13T02:02:34.096Z,55.37
2023-03-13T02:05:04.719Z,64.63
2023-03-13T02:07:39.581Z,63.07
2023-03-13T02:10:10.706Z,56.53
2023-03-13T02:12:41.194Z,55.30
2023-03-13T02:15:13.160Z,55.40
2023-03-13T02:17:44.487Z,44.00
2023-03-13T02:20:15.318Z,50.40
2023-03-13T02:22:51.222Z,51.87
2023-03-13T02:25:33.546Z,51.17
2023-03-13T02:28:04.714Z,49.20
2023-03-13T02:30:34.510Z,43.73
2023-03-13T02:33:04.262Z,51.53
2023-03-13T02:35:33.625Z,52.83
2023-03-13T02:38:05.938Z,45.80
2023-03-13T02:40:40.274Z,55.33
2023-03-13T02:43:13.574Z,44.90
2023-03-13T02:45:42.470Z,55.77
2023-03-13T02:48:11.309Z,56.17
2023-03-13T02:50:40.945Z,31.20
2023-03-13T02:53:12.030Z,18.87
2023-03-13T02:55:43.240Z,76.50
2023-03-13T02:58:11.774Z,65.33
2023-03-13T03:00:40.418Z,59.17
2023-03-13T03:03:08.947Z,62.57
2023-03-13T03:05:37.561Z,57.87
2023-03-13T03:08:06.192Z,52.80
2023-03-13T03:10:37.457Z,54.00
2023-03-13T03:13:07.501Z,59.53
2023-03-13T03:15:36.079Z,57.83
2023-03-13T03:18:04.721Z,54.87
2023-03-13T03:20:33.503Z,53.23
2023-03-13T03:23:02.597Z,51.47
2023-03-13T03:25:31.126Z,43.20
2023-03-13T03:27:59.908Z,52.90
2023-03-13T03:30:30.358Z,51.10
2023-03-13T03:32:59.060Z,49.07
2023-03-13T03:35:27.730Z,59.10
2023-03-13T03:37:56.220Z,48.83
2023-03-13T03:40:24.885Z,54.13
2023-03-13T03:42:53.416Z,52.53
2023-03-13T03:45:22.194Z,51.47
2023-03-13T03:48:03.468Z,52.60
2023-03-13T03:50:32.175Z,49.60
2023-03-13T03:53:01.172Z,51.33
2023-03-13T03:55:30.085Z,49.20
2023-03-13T03:57:58.798Z,44.00
2023-03-13T04:00:28.480Z,45.37
2023-03-13T04:02:57.426Z,39.80
2023-03-13T04:05:27.727Z,41.97
2023-03-13T04:07:56.705Z,42.00
2023-03-13T04:10:25.292Z,41.33
2023-03-13T04:12:53.939Z,42.80
2023-03-13T04:15:22.536Z,39.13
2023-03-13T04:17:51.048Z,41.53
2023-03-13T04:20:19.782Z,45.33
2023-03-13T04:22:49.933Z,44.23
2023-03-13T04:25:21.181Z,50.37
2023-03-13T04:27:49.886Z,46.50
2023-03-13T04:30:19.404Z,43.97
2023-03-13T04:32:48.075Z,33.50
2023-03-13T04:35:16.835Z,42.57
2023-03-13T04:37:45.421Z,45.60
2023-03-13T04:40:15.707Z,39.07
2023-03-13T04:42:44.328Z,41.23
2023-03-13T04:45:14.093Z,47.00
2023-03-13T04:47:42.680Z,45.30
2023-03-13T04:50:12.242Z,37.70
2023-03-13T04:52:40.969Z,50.43
2023-03-13T04:55:10.248Z,40.80
2023-03-13T04:57:40.488Z,36.20
2023-03-13T05:00:12.381Z,33.13
2023-03-13T05:02:40.968Z,35.30
2023-03-13T05:05:10.218Z,35.63
2023-03-13T05:07:50.384Z,30.40
2023-03-13T05:10:19.143Z,26.83
2023-03-13T05:12:49.169Z,34.07
2023-03-13T05:15:17.966Z,31.80
2023-03-13T05:17:46.527Z,34.43
2023-03-13T05:20:15.246Z,29.53
2023-03-13T05:22:43.825Z,44.70
2023-03-13T05:25:13.951Z,41.33
2023-03-13T05:28:20.572Z,19.73
2023-03-13T05:30:49.332Z,20.92
2023-03-13T05:33:19.508Z,16.07
2023-03-13T05:35:48.472Z,23.70
2023-03-13T05:38:17.060Z,24.50
2023-03-13T05:40:46.261Z,43.40
2023-03-13T05:43:14.824Z,48.67
2023-03-13T05:45:44.923Z,45.87
2023-03-13T05:48:13.591Z,47.53
2023-03-13T05:50:42.189Z,50.63
2023-03-13T05:53:10.705Z,48.90
2023-03-13T05:55:39.225Z,17.08
2023-03-13T05:58:07.864Z,16.70
2023-03-13T06:00:36.620Z,21.90
2023-03-13T06:03:06.676Z,24.40
2023-03-13T06:05:35.200Z,35.23
2023-03-13T06:08:04.390Z,31.53
2023-03-13T06:10:33.264Z,36.60
2023-03-13T06:13:17.140Z,33.67
2023-03-13T06:15:53.381Z,42.37
2023-03-13T06:18:24.345Z,42.37
2023-03-13T06:20:59.024Z,42.00
2023-03-13T06:23:27.615Z,39.37
2023-03-13T06:25:57.021Z,40.87
2023-03-13T06:28:25.986Z,36.03
2023-03-13T06:30:55.409Z,41.00
2023-03-13T06:33:26.600Z,38.07
2023-03-13T06:35:57.031Z,31.60
2023-03-13T06:38:26.861Z,24.23
2023-03-13T06:40:55.669Z,26.37
2023-03-13T06:43:24.735Z,30.43
2023-03-13T06:45:53.577Z,28.30
2023-03-13T06:48:23.352Z,29.87
2023-03-13T06:50:54.513Z,27.70
2023-03-13T06:53:23.194Z,22.37
2023-03-13T06:55:52.256Z,21.33
2023-03-13T06:58:31.593Z,24.57
2023-03-13T07:01:01.267Z,27.00
2023-03-13T07:03:30.222Z,22.03
2023-03-13T07:06:00.996Z,26.57
2023-03-13T07:08:30.070Z,22.83
2023-03-13T07:11:01.899Z,26.23
2023-03-13T07:13:31.019Z,24.77
2023-03-13T07:16:02.202Z,24.47
2023-03-13T07:18:31.022Z,24.07
2023-03-13T07:21:05.184Z,20.33
2023-03-13T07:23:34.963Z,19.80
2023-03-13T07:26:05.484Z,20.60
2023-03-13T07:28:36.434Z,20.50
2023-03-13T07:31:07.892Z,19.47
2023-03-13T07:33:36.743Z,20.63
2023-03-13T07:36:07.953Z,20.67
2023-03-13T07:38:36.516Z,19.73
2023-03-13T07:41:05.837Z,18.83
2023-03-13T07:43:34.691Z,19.30
2023-03-13T07:46:04.928Z,20.38
2023-03-13T07:48:35.681Z,21.50
2023-03-13T07:51:07.035Z,22.23
2023-03-13T07:53:36.086Z,17.57
2023-03-13T07:56:06.778Z,19.57
2023-03-13T07:58:37.766Z,17.50
2023-03-13T08:01:11.465Z,18.10
2023-03-13T08:03:41.016Z,17.90
2023-03-13T08:06:13.763Z,16.97
2023-03-13T08:08:42.746Z,17.97
2023-03-13T08:11:13.094Z,19.87
2023-03-13T08:13:42.767Z,17.63
2023-03-13T08:16:13.183Z,18.50
2023-03-13T08:18:44.037Z,26.93
2023-03-13T08:21:18.982Z,19.03
2023-03-13T08:23:47.628Z,20.03
2023-03-13T08:26:18.348Z,25.93
2023-03-13T08:28:48.958Z,25.50
2023-03-13T08:31:19.324Z,24.33
2023-03-13T08:33:49.073Z,26.93
2023-03-13T08:36:20.995Z,25.93
2023-03-13T08:38:50.860Z,27.10
2023-03-13T08:41:21.057Z,30.53
2023-03-13T08:43:50.024Z,31.33
2023-03-13T08:46:19.843Z,26.97
2023-03-13T08:48:51.757Z,27.47
2023-03-13T08:51:23.244Z,27.20
2023-03-13T08:53:52.869Z,27.25
2023-03-13T08:56:22.711Z,15.20
2023-03-13T08:58:52.588Z,24.17
2023-03-13T09:01:22.641Z,24.60
2023-03-13T09:03:51.767Z,24.73
2023-03-13T09:06:21.954Z,27.93
2023-03-13T09:08:50.683Z,22.07
2023-03-13T09:11:20.786Z,25.83
2023-03-13T09:13:51.354Z,26.17
2023-03-13T09:16:22.521Z,30.80
2023-03-13T09:19:30.449Z,25.53
2023-03-13T09:22:05.063Z,35.22
2023-03-13T09:24:34.010Z,25.77
2023-03-13T09:27:02.813Z,19.93
2023-03-13T09:29:32.362Z,15.77
2023-03-13T09:32:02.786Z,14.97
2023-03-13T09:41:48.419Z,21.37
2023-03-13T09:44:22.745Z,16.17
2023-03-13T09:47:02.720Z,21.60
2023-03-13T09:49:36.040Z,18.73
2023-03-13T09:52:15.573Z,22.57
2023-03-13T09:54:51.188Z,22.07
2023-03-13T09:57:46.394Z,34.87
2023-03-13T10:00:29.816Z,38.45
2023-03-13T10:03:32.601Z,29.17
2023-03-13T10:06:06.183Z,41.25
2023-03-13T10:08:36.877Z,16.77
2023-03-13T10:11:12.584Z,19.03
2023-03-13T10:13:48.043Z,20.10
2023-03-13T10:16:22.365Z,20.60
2023-03-13T10:18:57.816Z,14.67
2023-03-13T10:21:34.055Z,15.67
2023-03-13T10:24:07.370Z,17.70
2023-03-13T10:26:39.179Z,19.00
2023-03-13T10:29:22.561Z,19.00
2023-03-13T10:31:58.667Z,17.43
2023-03-13T10:34:28.931Z,15.73
2023-03-13T10:37:08.079Z,14.07
2023-03-13T10:39:41.190Z,17.33
2023-03-13T10:42:26.904Z,19.27
2023-03-13T10:45:01.575Z,26.37
2023-03-13T10:47:36.005Z,23.00
2023-03-13T10:50:05.841Z,19.07
2023-03-13T10:52:43.049Z,15.87
2023-03-13T10:55:14.819Z,13.63
2023-03-13T10:57:53.988Z,14.53
2023-03-13T11:00:31.496Z,15.03
2023-03-13T11:03:00.567Z,16.33
2023-03-13T11:05:35.723Z,18.43
2023-03-13T11:08:21.636Z,14.60
2023-03-13T11:10:55.937Z,17.67
2023-03-13T11:13:47.288Z,14.07
2023-03-13T11:16:21.722Z,16.03
2023-03-13T11:19:11.744Z,13.83
2023-03-13T11:21:48.524Z,13.40
2023-03-13T11:24:26.347Z,15.03
2023-03-13T11:27:06.913Z,16.67
2023-03-13T11:29:48.788Z,13.07
2023-03-13T11:32:25.762Z,12.83
2023-03-13T11:34:59.126Z,13.03
2023-03-13T11:37:33.246Z,12.83
2023-03-13T11:40:11.558Z,13.57
2023-03-13T11:43:01.158Z,13.83
2023-03-13T11:45:53.645Z,25.60
2023-03-13T11:48:39.375Z,14.60
2023-03-13T11:51:14.625Z,11.70
2023-03-13T11:54:12.578Z,10.40
2023-03-13T11:56:45.367Z,16.83
2023-03-13T11:59:34.362Z,18.63
2023-03-13T12:02:14.957Z,17.40
2023-03-13T12:04:47.969Z,14.30
2023-03-13T12:07:32.259Z,13.53
2023-03-13T12:10:05.301Z,11.73
2023-03-13T12:12:41.289Z,9.98
2023-03-13T12:15:20.923Z,10.07
2023-03-13T12:17:59.678Z,12.67
2023-03-13T12:20:35.200Z,15.00
2023-03-13T12:23:20.060Z,13.77
2023-03-13T12:25:54.665Z,13.50
2023-03-13T12:28:31.673Z,12.67
2023-03-13T12:31:09.795Z,12.30
2023-03-13T12:33:44.478Z,14.10
2023-03-13T12:36:20.921Z,11.90
2023-03-13T12:39:06.688Z,12.33
2023-03-13T12:41:42.719Z,14.17
2023-03-13T12:44:16.144Z,13.70
2023-03-13T12:46:49.480Z,16.10
2023-03-13T12:49:56.253Z,17.93
2023-03-13T12:53:20.987Z,17.37
2023-03-13T12:56:08.993Z,22.30
2023-03-13T12:58:49.777Z,31.33
2023-03-13T13:01:31.642Z,34.80
2023-03-13T13:04:03.341Z,37.40
2023-03-13T13:06:55.553Z,33.10
2023-03-13T13:09:41.669Z,31.10
2023-03-13T13:12:29.083Z,22.77
2023-03-13T13:15:18.325Z,33.73
2023-03-13T13:18:07.629Z,19.53
2023-03-13T13:20:45.871Z,24.93
2023-03-13T13:23:39.710Z,18.73
2023-03-13T13:26:47.516Z,17.90
2023-03-13T13:29:59.480Z,13.90
2023-03-13T13:32:46.561Z,26.93
2023-03-13T13:35:40.110Z,23.03
2023-03-13T13:38:37.278Z,19.27
2023-03-13T13:41:28.644Z,18.90
2023-03-13T13:44:25.311Z,18.73
2023-03-13T13:46:55.638Z,16.63
2023-03-13T13:49:26.766Z,17.83
2023-03-13T13:52:35.642Z,27.10
2023-03-13T13:55:06.370Z,19.47
2023-03-13T13:57:38.984Z,18.47
2023-03-13T14:00:22.803Z,18.57
2023-03-13T14:02:53.205Z,16.37
2023-03-13T14:05:24.576Z,11.57
2023-03-13T14:08:07.892Z,12.33
2023-03-13T14:10:40.790Z,16.50
2023-03-13T14:13:16.779Z,18.87
2023-03-13T14:15:47.781Z,15.60
2023-03-13T14:18:23.261Z,12.97
2023-03-13T14:20:58.734Z,12.23
2023-03-13T14:23:42.502Z,12.97
2023-03-13T14:26:23.157Z,12.17
2023-03-13T14:28:54.879Z,10.97
2023-03-13T14:31:29.743Z,11.53
2023-03-13T14:34:00.554Z,10.97
2023-03-13T14:36:30.274Z,9.77
2023-03-13T14:39:00.651Z,10.83
2023-03-13T14:41:37.661Z,10.60
2023-03-13T14:44:15.446Z,10.67
2023-03-13T14:46:45.299Z,9.93
2023-03-13T14:49:21.213Z,9.60
2023-03-13T14:51:59.874Z,9.83
2023-03-13T14:54:32.284Z,10.47
2023-03-13T14:57:17.126Z,10.17
2023-03-13T14:59:47.826Z,9.93
2023-03-13T15:02:21.484Z,10.07
2023-03-13T15:04:52.295Z,8.97
2023-03-13T15:07:21.959Z,10.70
2023-03-13T15:09:51.861Z,9.17
2023-03-13T15:12:23.329Z,9.67
2023-03-13T15:14:54.747Z,8.17
2023-03-13T15:17:25.390Z,9.93
2023-03-13T15:19:56.462Z,10.37
2023-03-13T15:22:43.154Z,9.97
2023-03-13T15:25:18.773Z,9.73
2023-03-13T15:27:48.428Z,9.13
2023-03-13T15:30:21.235Z,10.67
2023-03-13T15:32:50.562Z,9.23
2023-03-13T15:35:29.091Z,9.87
2023-03-13T15:38:02.089Z,10.43
2023-03-13T15:40:32.204Z,9.60
2023-03-13T15:43:37.032Z,10.63
2023-03-13T15:46:12.130Z,10.07
2023-03-13T15:48:41.892Z,8.17
2023-03-13T15:51:14.430Z,11.13
2023-03-13T15:53:43.684Z,9.40
2023-03-13T15:56:17.406Z,9.47
2023-03-13T15:58:47.697Z,10.50
2023-03-13T16:01:19.732Z,9.83
2023-03-13T16:03:48.638Z,10.63
2023-03-13T16:06:20.835Z,12.20
2023-03-13T16:08:51.922Z,10.33
2023-03-13T16:11:21.562Z,9.33
2023-03-13T16:13:53.378Z,9.27
2023-03-13T16:16:31.156Z,8.53
2023-03-13T16:19:11.295Z,9.43
2023-03-13T16:21:43.942Z,9.37
2023-03-13T16:24:13.031Z,9.10
2023-03-13T16:27:02.465Z,9.27
2023-03-13T16:29:31.433Z,8.57
2023-03-13T16:32:02.186Z,33.70
2023-03-13T16:34:31.660Z,24.90
2023-03-13T16:37:02.839Z,12.40
2023-03-13T16:39:33.209Z,10.83
2023-03-13T16:42:02.584Z,10.30
2023-03-13T16:44:32.851Z,10.07
2023-03-13T16:47:06.391Z,12.27
2023-03-13T16:49:35.497Z,12.33
2023-03-13T16:52:04.417Z,11.60
2023-03-13T16:54:33.387Z,12.73
2023-03-13T16:57:04.751Z,10.27
2023-03-13T16:59:35.417Z,11.50
2023-03-13T17:02:06.287Z,8.93
2023-03-13T17:04:35.561Z,9.50
2023-03-13T17:07:05.283Z,9.70
2023-03-13T17:09:34.658Z,9.30
2023-03-13T17:12:04.381Z,8.53
2023-03-13T17:14:35.455Z,8.97
2023-03-13T17:17:07.164Z,11.70
2023-03-13T17:19:35.951Z,9.77
2023-03-13T17:22:05.418Z,8.17
2023-03-13T17:24:35.573Z,9.73
2023-03-13T17:27:04.500Z,9.50
2023-03-13T17:29:35.048Z,9.73
2023-03-13T17:32:06.744Z,10.13
2023-03-13T17:34:36.036Z,18.35
2023-03-13T17:37:06.570Z,15.77
2023-03-13T17:39:35.644Z,12.07
2023-03-13T17:42:07.400Z,11.10
2023-03-13T17:44:36.382Z,10.13
2023-03-13T17:47:12.111Z,10.13
2023-03-13T17:49:41.091Z,8.87
2023-03-13T17:52:16.014Z,9.83
2023-03-13T17:54:46.404Z,9.57
2023-03-13T17:57:26.234Z,12.77
2023-03-13T17:59:54.950Z,13.53
2023-03-13T18:02:25.512Z,12.70
2023-03-13T18:04:54.931Z,11.03
2023-03-13T18:07:27.248Z,10.73
2023-03-13T18:09:56.362Z,10.90
2023-03-13T18:12:25.663Z,9.40
2023-03-13T18:14:54.602Z,32.10
2023-03-13T18:17:26.139Z,20.80
2023-03-13T18:19:54.911Z,11.47
2023-03-13T18:22:24.991Z,11.43
2023-03-13T18:24:53.807Z,12.00
2023-03-13T18:27:23.788Z,11.03
2023-03-13T18:29:52.646Z,11.17
2023-03-13T18:32:21.911Z,11.53
2023-03-13T18:34:52.537Z,10.20
2023-03-13T18:37:24.899Z,10.67
2023-03-13T18:39:56.085Z,9.47
2023-03-13T18:42:25.883Z,11.43
2023-03-13T18:44:55.640Z,9.97
2023-03-13T18:47:29.097Z,11.10
2023-03-13T18:50:00.194Z,10.00
2023-03-13T18:52:31.401Z,10.27
2023-03-13T18:55:01.107Z,13.33
2023-03-13T18:57:39.939Z,11.83
2023-03-13T19:00:34.329Z,9.83
2023-03-13T19:03:03.760Z,10.53
2023-03-13T19:05:34.865Z,11.03
2023-03-13T19:08:04.172Z,11.47
2023-03-13T19:10:38.966Z,12.30
2023-03-13T19:13:08.857Z,11.20
2023-03-13T19:15:42.439Z,12.47
2023-03-13T19:18:13.662Z,11.67
2023-03-13T19:20:48.895Z,14.43
2023-03-13T19:23:22.608Z,12.10
2023-03-13T19:25:59.897Z,10.53
2023-03-13T19:28:29.399Z,10.50
2023-03-13T19:30:58.994Z,10.87
2023-03-13T19:33:28.219Z,13.43
2023-03-13T19:36:00.289Z,12.77
2023-03-13T19:38:30.548Z,13.20
2023-03-13T19:41:01.493Z,13.87
2023-03-13T19:43:30.790Z,15.03
2023-03-13T19:46:04.261Z,16.83
2023-03-13T19:48:34.162Z,16.97
2023-03-13T19:51:04.711Z,14.80
2023-03-13T19:53:40.441Z,18.60
2023-03-13T19:56:19.782Z,17.40
2023-03-13T19:58:52.837Z,21.10
2023-03-13T20:01:22.619Z,20.10
2023-03-13T20:03:52.378Z,18.50
2023-03-13T20:06:27.508Z,18.97
2023-03-13T20:09:01.107Z,18.20
2023-03-13T20:11:30.931Z,16.13
2023-03-13T20:14:00.498Z,16.77
2023-03-13T20:16:31.566Z,17.63
2023-03-13T20:19:03.696Z,19.87
2023-03-13T20:21:36.347Z,17.70
2023-03-13T20:24:08.446Z,16.93
2023-03-13T20:26:47.368Z,18.37
2023-03-13T20:29:19.722Z,17.93
2023-03-13T20:31:51.667Z,14.33
2023-03-13T20:34:22.685Z,16.27
2023-03-13T20:36:56.919Z,16.33
2023-03-13T20:39:31.695Z,15.53
2023-03-13T20:42:03.471Z,20.10
2023-03-13T20:44:33.032Z,16.17
2023-03-13T20:47:10.191Z,19.97
2023-03-13T20:49:47.949Z,14.93
2023-03-13T20:52:26.642Z,13.80
2023-03-13T20:55:00.919Z,17.60
2023-03-13T20:57:30.903Z,17.67
2023-03-13T21:00:27.829Z,16.70
2023-03-13T21:03:07.120Z,17.07
2023-03-13T21:05:45.185Z,17.30
2023-03-13T21:08:23.074Z,18.37
2023-03-13T21:11:01.598Z,20.73
2023-03-13T21:13:32.206Z,19.70
2023-03-13T21:16:08.032Z,21.77
2023-03-13T21:18:38.012Z,20.17
2023-03-13T21:21:13.016Z,17.17
2023-03-13T21:23:45.401Z,24.30
2023-03-13T21:26:18.715Z,16.87
2023-03-13T21:28:48.930Z,15.67
2023-03-13T21:31:24.907Z,13.03
2023-03-13T21:33:54.434Z,17.83
2023-03-13T21:36:28.652Z,14.20
2023-03-13T21:38:59.794Z,11.87
2023-03-13T21:41:43.850Z,11.77
2023-03-13T21:44:13.306Z,10.60
2023-03-13T21:46:42.880Z,10.70
2023-03-13T21:49:20.356Z,11.27
2023-03-13T21:51:49.476Z,12.27
2023-03-13T21:54:19.886Z,10.83
2023-03-13T21:56:48.993Z,12.53
2023-03-13T21:59:22.149Z,10.90
2023-03-13T22:01:51.275Z,12.33
2023-03-13T22:04:20.090Z,13.00
2023-03-13T22:06:51.989Z,11.87
2023-03-13T22:09:37.997Z,9.57
2023-03-13T22:12:29.156Z,9.97
2023-03-13T22:15:03.456Z,9.63
2023-03-13T22:18:19.658Z,9.50
2023-03-13T22:20:50.372Z,23.57
2023-03-13T22:23:29.000Z,11.47
2023-03-13T22:27:04.747Z,10.20
2023-03-13T22:29:49.576Z,14.27
2023-03-13T22:32:51.499Z,13.17
2023-03-13T22:35:22.767Z,12.93
2023-03-13T22:38:32.758Z,14.77
2023-03-13T22:41:26.772Z,11.97
2023-03-13T22:44:14.138Z,11.43
2023-03-13T22:46:43.595Z,10.53
2023-03-13T22:50:05.415Z,11.67
2023-03-13T22:52:55.496Z,12.20
2023-03-13T22:56:08.019Z,11.33
2023-03-13T22:58:44.800Z,11.67
2023-03-13T23:04:56.390Z,12.23
2023-03-13T23:07:53.530Z,11.93
2023-03-13T23:10:43.488Z,12.73
2023-03-13T23:13:12.350Z,10.20
2023-03-13T23:15:59.414Z,10.03
2023-03-13T23:18:29.310Z,11.37
2023-03-13T23:20:58.114Z,11.70
2023-03-13T23:23:30.663Z,10.90
2023-03-13T23:26:01.261Z,22.90
2023-03-13T23:28:30.077Z,14.40
2023-03-13T23:31:01.060Z,11.47
2023-03-13T23:33:30.976Z,13.30
2023-03-13T23:36:05.508Z,12.23
2023-03-13T23:38:34.228Z,16.43
2023-03-13T23:41:07.492Z,14.27
2023-03-13T23:43:37.439Z,15.43
2023-03-13T23:46:15.672Z,17.90
2023-03-13T23:48:44.476Z,15.83
2023-03-13T23:51:13.662Z,16.77
2023-03-13T23:53:44.044Z,16.60
2023-03-13T23:56:12.944Z,15.00
2023-03-13T23:58:42.060Z,13.97
